createdAt,value
2018-01-28T00:00:24.717Z,1020.02
2018-01-28T00:01:24.734Z,1019.96
2018-01-28T00:02:24.751Z,1019.84
2018-01-28T00:03:24.767Z,1019.86
2018-01-28T00:04:24.782Z,1019.82
2018-01-28T00:05:24.799Z,1019.78
2018-01-28T00:06:24.815Z,1019.84
2018-01-28T00:07:24.832Z,1019.82
2018-01-28T00:08:24.847Z,1019.81
2018-01-28T00:09:24.865Z,1019.83
2018-01-28T00:10:24.881Z,1019.79
2018-01-28T00:11:24.897Z,1019.74
2018-01-28T00:12:24.913Z,1019.76
2018-01-28T00:13:24.930Z,1019.77
2018-01-28T00:14:24.947Z,1019.72
2018-01-28T00:15:24.963Z,1019.72
2018-01-28T00:16:24.978Z,1019.67
2018-01-28T00:17:24.995Z,1019.62
2018-01-28T00:18:25.011Z,1019.59
2018-01-28T00:19:25.028Z,1019.64
2018-01-28T00:20:25.044Z,1019.65
2018-01-28T00:21:25.060Z,1019.63
2018-01-28T00:22:25.076Z,1019.68
2018-01-28T00:23:25.093Z,1019.73
2018-01-28T00:24:25.109Z,1019.72
2018-01-28T00:25:25.125Z,1019.68
2018-01-28T00:26:25.142Z,1019.62
2018-01-28T00:27:25.158Z,1019.61
2018-01-28T00:28:25.174Z,1019.63
2018-01-28T00:29:25.191Z,1019.77
2018-01-28T00:30:25.207Z,1019.79
2018-01-28T00:31:25.225Z,1019.79
2018-01-28T00:32:25.239Z,1019.76
2018-01-28T00:33:25.256Z,1019.74
2018-01-28T00:34:25.273Z,1019.65
2018-01-28T00:35:25.289Z,1019.68
2018-01-28T00:36:25.305Z,1019.67
2018-01-28T00:37:25.321Z,1019.62
2018-01-28T00:38:25.338Z,1019.58
2018-01-28T00:39:25.355Z,1019.57
2018-01-28T00:40:25.370Z,1019.63
2018-01-28T00:41:25.387Z,1019.55
2018-01-28T00:42:25.403Z,1019.55
2018-01-28T00:43:25.447Z,1019.58
2018-01-28T00:44:25.435Z,1019.58
2018-01-28T00:45:25.452Z,1019.46
2018-01-28T00:46:25.468Z,1019.48
2018-01-28T00:47:25.485Z,1019.52
2018-01-28T00:48:25.500Z,1019.54
2018-01-28T00:49:25.517Z,1019.45
2018-01-28T00:50:25.533Z,1019.50
2018-01-28T00:51:25.550Z,1019.46
2018-01-28T00:52:25.566Z,1019.36
2018-01-28T00:53:25.581Z,1019.36
2018-01-28T00:54:25.604Z,1019.24
2018-01-28T00:55:25.617Z,1019.29
2018-01-28T00:56:25.684Z,1019.27
2018-01-28T00:57:25.647Z,1019.24
2018-01-28T00:58:25.669Z,1019.32
2018-01-28T00:59:25.680Z,1019.31
2018-01-28T01:00:25.696Z,1019.30
2018-01-28T01:01:25.712Z,1019.37
2018-01-28T01:02:25.729Z,1019.35
2018-01-28T01:03:25.745Z,1019.31
2018-01-28T01:04:25.761Z,1019.29
2018-01-28T01:05:25.779Z,1019.24
2018-01-28T01:06:25.794Z,1019.25
2018-01-28T01:07:25.811Z,1019.25
2018-01-28T01:08:25.827Z,1019.29
2018-01-28T01:09:25.844Z,1019.29
2018-01-28T01:10:25.860Z,1019.33
2018-01-28T01:11:25.877Z,1019.31
2018-01-28T01:12:25.891Z,1019.32
2018-01-28T01:13:25.908Z,1019.39
2018-01-28T01:14:25.925Z,1019.35
2018-01-28T01:15:25.943Z,1019.36
2018-01-28T01:16:26.109Z,1019.41
2018-01-28T01:17:25.977Z,1019.42
2018-01-28T01:18:25.990Z,1019.46
2018-01-28T01:19:26.008Z,1019.46
2018-01-28T01:20:26.023Z,1019.48
2018-01-28T01:21:26.193Z,1019.51
2018-01-28T01:22:26.056Z,1019.50
2018-01-28T01:23:26.073Z,1019.52
2018-01-28T01:24:26.089Z,1019.55
2018-01-28T01:25:26.105Z,1019.61
2018-01-28T01:26:26.128Z,1019.56
2018-01-28T01:27:26.137Z,1019.57
2018-01-28T01:28:26.154Z,1019.58
2018-01-28T01:29:26.171Z,1019.55
2018-01-28T01:30:26.188Z,1019.55
2018-01-28T01:31:26.204Z,1019.57
2018-01-28T01:32:26.221Z,1019.58
2018-01-28T01:33:26.236Z,1019.52
2018-01-28T01:34:26.252Z,1019.63
2018-01-28T01:35:26.270Z,1019.60
2018-01-28T01:36:26.284Z,1019.65
2018-01-28T01:37:26.302Z,1019.54
2018-01-28T01:38:26.318Z,1019.55
2018-01-28T01:39:26.986Z,1019.57
2018-01-28T01:40:26.350Z,1019.65
2018-01-28T01:41:26.367Z,1019.61
2018-01-28T01:42:26.383Z,1019.67
2018-01-28T01:43:26.400Z,1019.70
2018-01-28T01:44:26.416Z,1019.64
2018-01-28T01:45:26.432Z,1019.69
2018-01-28T01:46:26.449Z,1019.63
2018-01-28T01:47:26.466Z,1019.58
2018-01-28T01:48:26.481Z,1019.51
2018-01-28T01:49:26.497Z,1019.61
2018-01-28T01:50:26.515Z,1019.58
2018-01-28T01:51:26.531Z,1019.60
2018-01-28T01:52:26.546Z,1019.52
2018-01-28T01:53:26.563Z,1019.44
2018-01-28T01:54:26.579Z,1019.36
2018-01-28T01:55:26.597Z,1019.34
2018-01-28T01:56:26.613Z,1019.35
2018-01-28T01:57:26.628Z,1019.32
2018-01-28T01:58:26.645Z,1019.33
2018-01-28T01:59:26.662Z,1019.34
2018-01-28T02:00:26.677Z,1019.32
2018-01-28T02:01:26.694Z,1019.25
2018-01-28T02:02:26.711Z,1019.30
2018-01-28T02:03:26.729Z,1019.18
2018-01-28T02:04:26.743Z,1019.09
2018-01-28T02:05:26.759Z,1019.22
2018-01-28T02:06:26.776Z,1019.22
2018-01-28T02:07:26.793Z,1019.27
2018-01-28T02:08:26.811Z,1019.31
2018-01-28T02:09:26.825Z,1019.36
2018-01-28T02:10:26.842Z,1019.30
2018-01-28T02:11:26.858Z,1019.41
2018-01-28T02:12:26.874Z,1019.43
2018-01-28T02:13:26.891Z,1019.48
2018-01-28T02:14:26.907Z,1019.38
2018-01-28T02:15:26.924Z,1019.33
2018-01-28T02:16:26.940Z,1019.33
2018-01-28T02:17:26.956Z,1019.31
2018-01-28T02:18:26.975Z,1019.34
2018-01-28T02:19:26.989Z,1019.31
2018-01-28T02:20:27.003Z,1019.35
2018-01-28T02:21:27.022Z,1019.39
2018-01-28T02:22:27.038Z,1019.41
2018-01-28T02:23:27.055Z,1019.36
2018-01-28T02:24:27.070Z,1019.41
2018-01-28T02:25:27.088Z,1019.40
2018-01-28T02:26:27.104Z,1019.31
2018-01-28T02:27:27.121Z,1019.34
2018-01-28T02:28:27.137Z,1019.36
2018-01-28T02:29:27.154Z,1019.22
2018-01-28T02:30:27.168Z,1019.29
2018-01-28T02:31:27.186Z,1019.35
2018-01-28T02:32:27.202Z,1019.31
2018-01-28T02:33:27.220Z,1019.26
2018-01-28T02:34:27.236Z,1019.35
2018-01-28T02:35:27.252Z,1019.34
2018-01-28T02:36:27.268Z,1019.40
2018-01-28T02:37:27.285Z,1019.42
2018-01-28T02:38:27.301Z,1019.53
2018-01-28T02:39:27.318Z,1019.45
2018-01-28T02:40:27.334Z,1019.41
2018-01-28T02:41:27.356Z,1019.43
2018-01-28T02:42:27.368Z,1019.47
2018-01-28T02:43:27.384Z,1019.39
2018-01-28T02:44:27.400Z,1019.45
2018-01-28T02:45:27.417Z,1019.51
2018-01-28T02:46:27.433Z,1019.44
2018-01-28T02:47:27.451Z,1019.52
2018-01-28T02:48:27.470Z,1019.51
2018-01-28T02:49:27.483Z,1019.58
2018-01-28T02:50:27.500Z,1019.60
2018-01-28T02:51:27.517Z,1019.52
2018-01-28T02:52:27.532Z,1019.46
2018-01-28T02:53:27.549Z,1019.46
2018-01-28T02:54:27.566Z,1019.49
2018-01-28T02:55:27.583Z,1019.45
2018-01-28T02:56:27.598Z,1019.49
2018-01-28T02:57:27.613Z,1019.48
2018-01-28T02:58:27.637Z,1019.48
2018-01-28T02:59:27.649Z,1019.50
2018-01-28T03:00:27.665Z,1019.56
2018-01-28T03:01:27.682Z,1019.54
2018-01-28T03:02:27.698Z,1019.67
2018-01-28T03:03:27.715Z,1019.67
2018-01-28T03:04:27.732Z,1019.66
2018-01-28T03:05:27.748Z,1019.62
2018-01-28T03:06:27.764Z,1019.70
2018-01-28T03:07:27.783Z,1019.70
2018-01-28T03:08:27.798Z,1019.61
2018-01-28T03:09:27.816Z,1019.53
2018-01-28T03:10:27.831Z,1019.48
2018-01-28T03:11:27.848Z,1019.52
2018-01-28T03:12:27.864Z,1019.67
2018-01-28T03:13:27.884Z,1019.63
2018-01-28T03:14:27.898Z,1019.64
2018-01-28T03:15:27.916Z,1019.62
2018-01-28T03:16:27.932Z,1019.74
2018-01-28T03:17:27.948Z,1019.77
2018-01-28T03:18:27.965Z,1019.75
2018-01-28T03:19:27.981Z,1019.73
2018-01-28T03:20:27.998Z,1019.80
2018-01-28T03:21:28.015Z,1019.85
2018-01-28T03:22:28.032Z,1019.80
2018-01-28T03:23:28.049Z,1019.91
2018-01-28T03:24:28.065Z,1019.94
2018-01-28T03:25:28.082Z,1019.91
2018-01-28T03:26:28.098Z,1019.95
2018-01-28T03:27:28.116Z,1019.90
2018-01-28T03:28:28.131Z,1020.01
2018-01-28T03:29:28.148Z,1019.92
2018-01-28T03:30:28.166Z,1019.97
2018-01-28T03:31:28.183Z,1020.00
2018-01-28T03:32:28.198Z,1019.92
2018-01-28T03:33:28.215Z,1019.92
2018-01-28T03:34:28.238Z,1019.81
2018-01-28T03:35:28.249Z,1019.84
2018-01-28T03:36:28.265Z,1019.77
2018-01-28T03:37:28.282Z,1019.83
2018-01-28T03:38:28.299Z,1019.78
2018-01-28T03:39:28.316Z,1019.71
2018-01-28T03:40:28.332Z,1019.80
2018-01-28T03:41:28.349Z,1019.70
2018-01-28T03:42:28.366Z,1019.73
2018-01-28T03:43:28.383Z,1019.74
2018-01-28T03:44:28.399Z,1019.89
2018-01-28T03:45:28.416Z,1019.90
2018-01-28T03:46:28.433Z,1019.99
2018-01-28T03:47:28.450Z,1020.06
2018-01-28T03:48:28.466Z,1020.04
2018-01-28T03:49:28.483Z,1019.90
2018-01-28T03:50:28.500Z,1019.80
2018-01-28T03:51:28.517Z,1019.81
2018-01-28T03:52:28.533Z,1019.88
2018-01-28T03:53:28.550Z,1019.93
2018-01-28T03:54:28.567Z,1019.91
2018-01-28T03:55:28.584Z,1019.95
2018-01-28T03:56:28.601Z,1019.91
2018-01-28T03:57:28.618Z,1019.87
2018-01-28T03:58:28.635Z,1019.82
2018-01-28T03:59:28.652Z,1019.72
2018-01-28T04:00:28.668Z,1019.83
2018-01-28T04:01:28.685Z,1019.80
2018-01-28T04:02:28.730Z,1019.81
2018-01-28T04:03:28.869Z,1019.79
2018-01-28T04:04:28.735Z,1019.81
2018-01-28T04:05:28.753Z,1019.77
2018-01-28T04:06:28.769Z,1019.84
2018-01-28T04:07:28.785Z,1019.79
2018-01-28T04:08:28.802Z,1019.78
2018-01-28T04:09:28.821Z,1019.77
2018-01-28T04:10:28.837Z,1019.77
2018-01-28T04:11:28.854Z,1019.71
2018-01-28T04:12:28.871Z,1019.68
2018-01-28T04:13:28.888Z,1019.79
2018-01-28T04:14:28.905Z,1019.72
2018-01-28T04:15:28.922Z,1019.74
2018-01-28T04:16:28.939Z,1019.76
2018-01-28T04:17:28.955Z,1019.84
2018-01-28T04:18:28.973Z,1019.90
2018-01-28T04:19:28.990Z,1019.95
2018-01-28T04:20:29.006Z,1020.02
2018-01-28T04:21:29.023Z,1020.02
2018-01-28T04:22:29.040Z,1020.03
2018-01-28T04:23:29.058Z,1020.11
2018-01-28T04:24:29.074Z,1020.16
2018-01-28T04:25:29.092Z,1020.16
2018-01-28T04:26:29.108Z,1020.23
2018-01-28T04:27:29.125Z,1020.22
2018-01-28T04:28:29.142Z,1020.23
2018-01-28T04:29:29.159Z,1020.25
2018-01-28T04:30:29.176Z,1020.14
2018-01-28T04:31:29.193Z,1020.19
2018-01-28T04:32:29.209Z,1020.19
2018-01-28T04:33:29.227Z,1020.22
2018-01-28T04:34:29.244Z,1020.10
2018-01-28T04:35:29.261Z,1020.11
2018-01-28T04:36:29.278Z,1020.08
2018-01-28T04:37:29.295Z,1020.07
2018-01-28T04:38:29.317Z,1020.01
2018-01-28T04:39:29.332Z,1019.91
2018-01-28T04:40:29.345Z,1019.82
2018-01-28T04:41:29.363Z,1019.97
2018-01-28T04:42:29.380Z,1019.96
2018-01-28T04:43:29.398Z,1019.97
2018-01-28T04:44:29.414Z,1020.09
2018-01-28T04:45:29.431Z,1020.16
2018-01-28T04:46:29.448Z,1020.19
2018-01-28T04:47:29.465Z,1020.31
2018-01-28T04:48:29.482Z,1020.33
2018-01-28T04:49:29.499Z,1020.30
2018-01-28T04:50:29.516Z,1020.29
2018-01-28T04:51:29.534Z,1020.19
2018-01-28T04:52:29.550Z,1020.24
2018-01-28T04:53:29.571Z,1020.29
2018-01-28T04:54:29.585Z,1020.27
2018-01-28T04:55:29.602Z,1020.26
2018-01-28T04:56:29.618Z,1020.33
2018-01-28T04:57:29.635Z,1020.40
2018-01-28T04:58:29.653Z,1020.45
2018-01-28T04:59:29.670Z,1020.39
2018-01-28T05:00:29.687Z,1020.38
2018-01-28T05:01:29.709Z,1020.40
2018-01-28T05:02:29.722Z,1020.35
2018-01-28T05:03:29.741Z,1020.36
2018-01-28T05:04:29.756Z,1020.23
2018-01-28T05:05:29.772Z,1020.26
2018-01-28T05:06:29.799Z,1020.21
2018-01-28T05:07:29.808Z,1020.24
2018-01-28T05:08:29.824Z,1020.27
2018-01-28T05:09:29.842Z,1020.23
2018-01-28T05:10:29.864Z,1020.20
2018-01-28T05:11:29.876Z,1020.17
2018-01-28T05:12:29.891Z,1020.23
2018-01-28T05:13:29.910Z,1020.38
2018-01-28T05:14:29.929Z,1020.38
2018-01-28T05:15:29.945Z,1020.43
2018-01-28T05:16:29.961Z,1020.49
2018-01-28T05:17:29.979Z,1020.37
2018-01-28T05:18:29.997Z,1020.45
2018-01-28T05:19:30.016Z,1020.41
2018-01-28T05:20:30.081Z,1020.42
2018-01-28T05:21:30.048Z,1020.37
2018-01-28T05:22:30.065Z,1020.33
2018-01-28T05:23:30.083Z,1020.30
2018-01-28T05:24:30.099Z,1020.39
2018-01-28T05:25:30.117Z,1020.43
2018-01-28T05:26:30.134Z,1020.42
2018-01-28T05:27:30.152Z,1020.42
2018-01-28T05:28:30.168Z,1020.43
2018-01-28T05:29:30.186Z,1020.43
2018-01-28T05:30:30.203Z,1020.42
2018-01-28T05:31:30.220Z,1020.38
2018-01-28T05:32:30.237Z,1020.43
2018-01-28T05:33:30.254Z,1020.36
2018-01-28T05:34:30.272Z,1020.33
2018-01-28T05:35:30.289Z,1020.32
2018-01-28T05:36:30.455Z,1020.28
2018-01-28T05:37:30.324Z,1020.31
2018-01-28T05:38:30.340Z,1020.31
2018-01-28T05:39:30.358Z,1020.19
2018-01-28T05:40:30.375Z,1020.13
2018-01-28T05:41:30.392Z,1020.08
2018-01-28T05:42:30.410Z,1020.14
2018-01-28T05:43:30.432Z,1020.19
2018-01-28T05:44:30.444Z,1020.25
2018-01-28T05:45:30.461Z,1020.34
2018-01-28T05:46:30.480Z,1020.36
2018-01-28T05:47:30.496Z,1020.40
2018-01-28T05:48:30.513Z,1020.39
2018-01-28T05:49:30.681Z,1020.51
2018-01-28T05:50:30.547Z,1020.48
2018-01-28T05:51:30.575Z,1020.58
2018-01-28T05:52:30.582Z,1020.52
2018-01-28T05:53:30.601Z,1020.56
2018-01-28T05:54:30.616Z,1020.65
2018-01-28T05:55:30.634Z,1020.75
2018-01-28T05:56:30.651Z,1020.74
2018-01-28T05:57:30.668Z,1020.79
2018-01-28T05:58:30.685Z,1020.73
2018-01-28T05:59:30.723Z,1020.83
2018-01-28T06:00:30.720Z,1020.81
2018-01-28T06:01:30.738Z,1020.89
2018-01-28T06:02:30.755Z,1020.88
2018-01-28T06:03:30.775Z,1020.93
2018-01-28T06:04:30.789Z,1020.93
2018-01-28T06:05:30.807Z,1020.89
2018-01-28T06:06:30.824Z,1020.92
2018-01-28T06:07:30.842Z,1020.93
2018-01-28T06:08:30.858Z,1020.99
2018-01-28T06:09:30.876Z,1020.97
2018-01-28T06:10:30.894Z,1020.94
2018-01-28T06:11:30.911Z,1021.01
2018-01-28T06:12:30.928Z,1020.99
2018-01-28T06:13:30.948Z,1021.04
2018-01-28T06:14:30.963Z,1021.01
2018-01-28T06:15:30.980Z,1021.09
2018-01-28T06:16:30.999Z,1021.07
2018-01-28T06:17:31.015Z,1021.19
2018-01-28T06:18:31.032Z,1021.12
2018-01-28T06:19:31.053Z,1021.11
2018-01-28T06:20:31.066Z,1021.02
2018-01-28T06:21:31.084Z,1021.04
2018-01-28T06:22:31.102Z,1021.01
2018-01-28T06:23:31.119Z,1020.97
2018-01-28T06:24:31.136Z,1021.02
2018-01-28T06:25:31.154Z,1021.11
2018-01-28T06:26:31.172Z,1021.12
2018-01-28T06:27:31.190Z,1021.06
2018-01-28T06:28:31.205Z,1021.13
2018-01-28T06:29:31.229Z,1021.12
2018-01-28T06:30:31.241Z,1021.13
2018-01-28T06:31:31.258Z,1021.13
2018-01-28T06:32:31.275Z,1021.04
2018-01-28T06:33:31.293Z,1020.90
2018-01-28T06:34:31.309Z,1020.95
2018-01-28T06:35:31.328Z,1020.98
2018-01-28T06:36:31.347Z,1020.94
2018-01-28T06:37:31.361Z,1021.03
2018-01-28T06:38:31.380Z,1021.04
2018-01-28T06:39:31.398Z,1021.11
2018-01-28T06:40:31.414Z,1021.20
2018-01-28T06:41:31.432Z,1021.20
2018-01-28T06:42:31.448Z,1021.20
2018-01-28T06:43:31.468Z,1021.16
2018-01-28T06:44:31.490Z,1021.15
2018-01-28T06:45:31.502Z,1021.07
2018-01-28T06:46:31.519Z,1021.02
2018-01-28T06:47:31.537Z,1021.02
2018-01-28T06:48:31.553Z,1021.01
2018-01-28T06:49:31.571Z,1020.98
2018-01-28T06:50:31.593Z,1021.04
2018-01-28T06:51:31.606Z,1021.03
2018-01-28T06:52:31.623Z,1021.08
2018-01-28T06:53:31.640Z,1021.10
2018-01-28T06:54:31.658Z,1021.16
2018-01-28T06:55:31.676Z,1021.12
2018-01-28T06:56:31.692Z,1021.08
2018-01-28T06:57:31.710Z,1021.15
2018-01-28T06:58:31.728Z,1021.21
2018-01-28T06:59:31.745Z,1021.27
2018-01-28T07:00:31.762Z,1021.32
2018-01-28T07:01:31.780Z,1021.32
2018-01-28T07:02:31.796Z,1021.37
2018-01-28T07:03:31.816Z,1021.39
2018-01-28T07:04:31.832Z,1021.38
2018-01-28T07:05:31.850Z,1021.37
2018-01-28T07:06:31.868Z,1021.41
2018-01-28T07:07:31.886Z,1021.38
2018-01-28T07:08:31.904Z,1021.42
2018-01-28T07:09:31.920Z,1021.42
2018-01-28T07:10:31.938Z,1021.48
2018-01-28T07:11:31.955Z,1021.52
2018-01-28T07:12:31.972Z,1021.52
2018-01-28T07:13:31.989Z,1021.57
2018-01-28T07:14:32.007Z,1021.52
2018-01-28T07:15:32.025Z,1021.49
2018-01-28T07:16:32.042Z,1021.55
2018-01-28T07:17:32.061Z,1021.58
2018-01-28T07:18:32.077Z,1021.48
2018-01-28T07:19:32.095Z,1021.49
2018-01-28T07:20:32.111Z,1021.46
2018-01-28T07:21:32.130Z,1021.49
2018-01-28T07:22:32.146Z,1021.50
2018-01-28T07:23:32.166Z,1021.53
2018-01-28T07:24:32.182Z,1021.57
2018-01-28T07:25:32.201Z,1021.60
2018-01-28T07:26:32.218Z,1021.62
2018-01-28T07:27:32.235Z,1021.69
2018-01-28T07:28:32.253Z,1021.73
2018-01-28T07:29:32.269Z,1021.67
2018-01-28T07:30:32.287Z,1021.78
2018-01-28T07:31:32.305Z,1021.74
2018-01-28T07:32:32.322Z,1021.71
2018-01-28T07:33:32.340Z,1021.76
2018-01-28T07:34:32.357Z,1021.81
2018-01-28T07:35:32.377Z,1021.84
2018-01-28T07:36:32.392Z,1021.87
2018-01-28T07:37:32.410Z,1021.91
2018-01-28T07:38:32.429Z,1021.89
2018-01-28T07:39:32.445Z,1021.92
2018-01-28T07:40:32.462Z,1021.91
2018-01-28T07:41:32.480Z,1021.92
2018-01-28T07:42:32.498Z,1021.92
2018-01-28T07:43:32.516Z,1021.84
2018-01-28T07:44:32.533Z,1021.81
2018-01-28T07:45:32.550Z,1021.75
2018-01-28T07:46:32.568Z,1021.81
2018-01-28T07:47:32.586Z,1021.85
2018-01-28T07:48:32.604Z,1021.90
2018-01-28T07:49:32.621Z,1021.91
2018-01-28T07:50:32.639Z,1021.93
2018-01-28T07:51:32.657Z,1021.94
2018-01-28T07:52:32.674Z,1021.89
2018-01-28T07:53:32.693Z,1021.91
2018-01-28T07:54:32.711Z,1021.87
2018-01-28T07:55:32.728Z,1021.87
2018-01-28T07:56:32.752Z,1021.88
2018-01-28T07:57:32.763Z,1021.92
2018-01-28T07:58:32.780Z,1021.97
2018-01-28T07:59:32.798Z,1021.96
2018-01-28T08:00:32.815Z,1021.91
2018-01-28T08:01:32.833Z,1021.99
2018-01-28T08:02:32.851Z,1022.02
2018-01-28T08:03:33.020Z,1021.96
2018-01-28T08:04:32.886Z,1021.91
2018-01-28T08:05:32.905Z,1021.94
2018-01-28T08:06:32.923Z,1021.97
2018-01-28T08:07:32.940Z,1021.98
2018-01-28T08:08:32.957Z,1021.92
2018-01-28T08:09:32.976Z,1021.96
2018-01-28T08:10:32.993Z,1021.85
2018-01-28T08:11:33.013Z,1021.89
2018-01-28T08:12:33.028Z,1021.86
2018-01-28T08:13:33.048Z,1021.80
2018-01-28T08:14:33.065Z,1021.78
2018-01-28T08:15:33.083Z,1021.75
2018-01-28T08:16:33.100Z,1021.74
2018-01-28T08:17:33.118Z,1021.76
2018-01-28T08:18:33.136Z,1021.76
2018-01-28T08:19:33.154Z,1021.80
2018-01-28T08:20:33.172Z,1021.79
2018-01-28T08:21:33.190Z,1021.79
2018-01-28T08:22:33.207Z,1021.81
2018-01-28T08:23:33.226Z,1021.80
2018-01-28T08:24:33.242Z,1021.80
2018-01-28T08:25:33.261Z,1021.85
2018-01-28T08:26:33.280Z,1021.88
2018-01-28T08:27:33.297Z,1021.81
2018-01-28T08:28:33.314Z,1021.82
2018-01-28T08:29:33.332Z,1021.88
2018-01-28T08:30:33.350Z,1021.86
2018-01-28T08:31:33.369Z,1021.85
2018-01-28T08:32:33.386Z,1021.83
2018-01-28T08:33:33.404Z,1021.87
2018-01-28T08:34:33.422Z,1021.91
2018-01-28T08:35:33.440Z,1021.95
2018-01-28T08:36:33.457Z,1021.97
2018-01-28T08:37:33.476Z,1021.97
2018-01-28T08:38:33.495Z,1021.91
2018-01-28T08:39:33.513Z,1021.91
2018-01-28T08:40:33.529Z,1021.91
2018-01-28T08:41:33.547Z,1021.90
2018-01-28T08:42:33.566Z,1021.89
2018-01-28T08:43:33.584Z,1021.88
2018-01-28T08:44:33.601Z,1021.85
2018-01-28T08:45:33.619Z,1021.81
2018-01-28T08:46:33.637Z,1021.93
2018-01-28T08:47:33.656Z,1021.92
2018-01-28T08:48:33.673Z,1021.97
2018-01-28T08:49:33.848Z,1022.03
2018-01-28T08:50:33.709Z,1022.03
2018-01-28T08:51:33.728Z,1022.00
2018-01-28T08:52:33.745Z,1022.01
2018-01-28T08:53:33.764Z,1022.01
2018-01-28T08:54:33.781Z,1022.04
2018-01-28T08:55:33.800Z,1022.04
2018-01-28T08:56:33.817Z,1022.04
2018-01-28T08:57:33.838Z,1022.02
2018-01-28T08:58:33.853Z,1022.10
2018-01-28T08:59:33.872Z,1022.06
2018-01-28T09:00:33.889Z,1022.06
2018-01-28T09:01:33.907Z,1022.02
2018-01-28T09:02:33.925Z,1022.05
2018-01-28T09:03:33.944Z,1022.07
2018-01-28T09:04:33.961Z,1022.05
2018-01-28T09:05:33.979Z,1022.07
2018-01-28T09:06:33.998Z,1022.04
2018-01-28T09:07:34.017Z,1022.01
2018-01-28T09:08:34.034Z,1022.04
2018-01-28T09:09:34.052Z,1022.03
2018-01-28T09:10:34.070Z,1022.03
2018-01-28T09:11:34.090Z,1022.06
2018-01-28T09:12:34.106Z,1022.05
2018-01-28T09:13:34.124Z,1022.12
2018-01-28T09:14:34.143Z,1022.08
2018-01-28T09:15:34.161Z,1022.11
2018-01-28T09:16:34.186Z,1022.12
2018-01-28T09:17:34.198Z,1022.14
2018-01-28T09:18:34.215Z,1022.13
2018-01-28T09:19:34.234Z,1022.18
2018-01-28T09:20:34.251Z,1022.19
2018-01-28T09:21:34.272Z,1022.18
2018-01-28T09:22:34.288Z,1022.23
2018-01-28T09:23:34.307Z,1022.24
2018-01-28T09:24:34.324Z,1022.28
2018-01-28T09:25:34.342Z,1022.27
2018-01-28T09:26:34.361Z,1022.38
2018-01-28T09:27:34.379Z,1022.39
2018-01-28T09:28:34.398Z,1022.38
2018-01-28T09:29:34.415Z,1022.39
2018-01-28T09:30:34.433Z,1022.32
2018-01-28T09:31:34.453Z,1022.36
2018-01-28T09:32:34.471Z,1022.37
2018-01-28T09:33:34.491Z,1022.38
2018-01-28T09:34:34.507Z,1022.37
2018-01-28T09:35:34.525Z,1022.37
2018-01-28T09:36:34.542Z,1022.32
2018-01-28T09:37:34.561Z,1022.37
2018-01-28T09:38:34.579Z,1022.35
2018-01-28T09:39:34.598Z,1022.34
2018-01-28T09:40:34.615Z,1022.36
2018-01-28T09:41:34.634Z,1022.39
2018-01-28T09:42:34.652Z,1022.37
2018-01-28T09:43:34.671Z,1022.41
2018-01-28T09:44:34.689Z,1022.46
2018-01-28T09:45:34.706Z,1022.42
2018-01-28T09:46:34.725Z,1022.39
2018-01-28T09:47:34.772Z,1022.47
2018-01-28T09:48:34.912Z,1022.44
2018-01-28T09:49:34.784Z,1022.47
2018-01-28T09:50:34.798Z,1022.53
2018-01-28T09:51:34.816Z,1022.56
2018-01-28T09:52:34.834Z,1022.49
2018-01-28T09:53:34.853Z,1022.53
2018-01-28T09:54:34.872Z,1022.53
2018-01-28T09:55:34.889Z,1022.53
2018-01-28T09:56:34.907Z,1022.52
2018-01-28T09:57:34.926Z,1022.56
2018-01-28T09:58:34.944Z,1022.52
2018-01-28T09:59:34.963Z,1022.55
2018-01-28T10:00:34.980Z,1022.43
2018-01-28T10:01:34.999Z,1022.42
2018-01-28T10:02:35.017Z,1022.30
2018-01-28T10:03:35.036Z,1022.30
2018-01-28T10:04:35.053Z,1022.36
2018-01-28T10:05:35.071Z,1022.36
2018-01-28T10:06:35.091Z,1022.33
2018-01-28T10:07:35.109Z,1022.32
2018-01-28T10:08:35.127Z,1022.43
2018-01-28T10:09:35.146Z,1022.48
2018-01-28T10:10:35.165Z,1022.57
2018-01-28T10:11:35.183Z,1022.54
2018-01-28T10:12:35.200Z,1022.61
2018-01-28T10:13:35.219Z,1022.64
2018-01-28T10:14:35.238Z,1022.60
2018-01-28T10:15:35.256Z,1022.59
2018-01-28T10:16:35.276Z,1022.56
2018-01-28T10:17:35.294Z,1022.52
2018-01-28T10:18:35.312Z,1022.64
2018-01-28T10:19:35.330Z,1022.53
2018-01-28T10:20:35.347Z,1022.55
2018-01-28T10:21:35.367Z,1022.53
2018-01-28T10:22:35.386Z,1022.57
2018-01-28T10:23:35.404Z,1022.57
2018-01-28T10:24:35.422Z,1022.63
2018-01-28T10:25:35.441Z,1022.57
2018-01-28T10:26:35.460Z,1022.69
2018-01-28T10:27:35.478Z,1022.70
2018-01-28T10:28:35.497Z,1022.78
2018-01-28T10:29:35.515Z,1022.74
2018-01-28T10:30:35.534Z,1022.70
2018-01-28T10:31:35.553Z,1022.63
2018-01-28T10:32:35.571Z,1022.63
2018-01-28T10:33:35.590Z,1022.54
2018-01-28T10:34:35.608Z,1022.55
2018-01-28T10:35:35.627Z,1022.51
2018-01-28T10:36:35.645Z,1022.51
2018-01-28T10:37:35.666Z,1022.56
2018-01-28T10:38:35.682Z,1022.46
2018-01-28T10:39:35.701Z,1022.48
2018-01-28T10:40:35.719Z,1022.45
2018-01-28T10:41:35.738Z,1022.43
2018-01-28T10:42:35.757Z,1022.43
2018-01-28T10:43:35.776Z,1022.51
2018-01-28T10:44:35.793Z,1022.50
2018-01-28T10:45:35.814Z,1022.51
2018-01-28T10:46:35.831Z,1022.49
2018-01-28T10:47:35.851Z,1022.50
2018-01-28T10:48:35.868Z,1022.46
2018-01-28T10:49:35.887Z,1022.47
2018-01-28T10:50:35.906Z,1022.46
2018-01-28T10:51:35.926Z,1022.44
2018-01-28T10:52:35.943Z,1022.52
2018-01-28T10:53:36.112Z,1022.47
2018-01-28T10:54:35.980Z,1022.51
2018-01-28T10:55:35.999Z,1022.49
2018-01-28T10:56:36.017Z,1022.49
2018-01-28T10:57:36.036Z,1022.50
2018-01-28T10:58:36.205Z,1022.51
2018-01-28T10:59:36.074Z,1022.57
2018-01-28T11:00:36.091Z,1022.55
2018-01-28T11:01:36.110Z,1022.53
2018-01-28T11:02:36.130Z,1022.54
2018-01-28T11:03:36.151Z,1022.48
2018-01-28T11:04:36.194Z,1022.47
2018-01-28T11:05:36.185Z,1022.44
2018-01-28T11:06:36.204Z,1022.51
2018-01-28T11:07:36.223Z,1022.50
2018-01-28T11:08:36.241Z,1022.47
2018-01-28T11:09:36.263Z,1022.46
2018-01-28T11:10:36.278Z,1022.41
2018-01-28T11:11:36.298Z,1022.44
2018-01-28T11:12:36.317Z,1022.44
2018-01-28T11:13:36.334Z,1022.53
2018-01-28T11:14:36.354Z,1022.54
2018-01-28T11:15:36.374Z,1022.53
2018-01-28T11:16:36.391Z,1022.48
2018-01-28T11:17:36.409Z,1022.44
2018-01-28T11:18:36.428Z,1022.54
2018-01-28T11:19:36.598Z,1022.50
2018-01-28T11:20:36.465Z,1022.54
2018-01-28T11:21:36.485Z,1022.45
2018-01-28T11:22:36.505Z,1022.63
2018-01-28T11:23:36.522Z,1022.64
2018-01-28T11:24:36.541Z,1022.62
2018-01-28T11:25:36.559Z,1022.62
2018-01-28T11:26:36.579Z,1022.59
2018-01-28T11:27:36.598Z,1022.67
2018-01-28T11:28:36.616Z,1022.65
2018-01-28T11:29:36.635Z,1022.62
2018-01-28T11:30:36.660Z,1022.73
2018-01-28T11:31:36.674Z,1022.64
2018-01-28T11:32:36.692Z,1022.66
2018-01-28T11:33:36.711Z,1022.63
2018-01-28T11:34:36.731Z,1022.71
2018-01-28T11:35:36.750Z,1022.60
2018-01-28T11:36:36.768Z,1022.64
2018-01-28T11:37:36.787Z,1022.69
2018-01-28T11:38:36.807Z,1022.64
2018-01-28T11:39:36.827Z,1022.66
2018-01-28T11:40:36.844Z,1022.58
2018-01-28T11:41:36.863Z,1022.57
2018-01-28T11:42:36.882Z,1022.58
2018-01-28T11:43:36.901Z,1022.65
2018-01-28T11:44:36.920Z,1022.61
2018-01-28T11:45:36.939Z,1022.56
2018-01-28T11:46:36.958Z,1022.56
2018-01-28T11:47:36.977Z,1022.62
2018-01-28T11:48:36.996Z,1022.57
2018-01-28T11:49:37.015Z,1022.49
2018-01-28T11:50:37.061Z,1022.51
2018-01-28T11:51:37.054Z,1022.54
2018-01-28T11:52:37.072Z,1022.52
2018-01-28T11:53:37.093Z,1022.51
2018-01-28T11:54:37.111Z,1022.53
2018-01-28T11:55:37.130Z,1022.66
2018-01-28T11:56:37.148Z,1022.71
2018-01-28T11:57:37.167Z,1022.70
2018-01-28T11:58:37.187Z,1022.82
2018-01-28T11:59:37.207Z,1022.69
2018-01-28T12:00:37.225Z,1022.76
2018-01-28T12:01:37.244Z,1022.70
2018-01-28T12:02:37.264Z,1022.70
2018-01-28T12:03:37.283Z,1022.68
2018-01-28T12:04:37.322Z,1022.59
2018-01-28T12:05:37.321Z,1022.56